createdAt,value
2022-07-29T00:01:02.715Z,2.70
2022-07-29T00:03:29.766Z,2.70
2022-07-29T00:05:56.780Z,4.07
2022-07-29T00:08:23.892Z,3.93
2022-07-29T00:10:52.243Z,4.10
2022-07-29T00:13:32.286Z,3.67
2022-07-29T00:16:03.782Z,3.70
2022-07-29T00:18:32.400Z,2.73
2022-07-29T00:20:59.342Z,2.77
2022-07-29T00:23:26.730Z,2.83
2022-07-29T00:25:53.695Z,2.73
2022-07-29T00:28:20.683Z,2.83
2022-07-29T00:30:47.622Z,2.47
2022-07-29T00:33:14.775Z,2.47
2022-07-29T00:35:47.477Z,2.60
2022-07-29T00:38:15.750Z,2.47
2022-07-29T00:40:44.103Z,2.50
2022-07-29T00:43:12.590Z,2.23
2022-07-29T00:45:39.520Z,2.00
2022-07-29T00:48:07.700Z,2.10
2022-07-29T00:50:34.643Z,2.03
2022-07-29T00:53:02.278Z,1.80
2022-07-29T00:55:30.441Z,2.20
2022-07-29T00:57:58.352Z,2.37
2022-07-29T01:00:26.627Z,1.80
2022-07-29T01:02:53.984Z,2.03
2022-07-29T01:05:23.191Z,2.30
2022-07-29T01:07:52.171Z,2.63
2022-07-29T01:10:20.760Z,2.77
2022-07-29T01:12:49.239Z,2.50
2022-07-29T01:15:16.189Z,2.77
2022-07-29T01:17:53.412Z,2.50
2022-07-29T01:20:31.687Z,2.90
2022-07-29T01:23:08.296Z,2.13
2022-07-29T01:25:46.865Z,2.17
2022-07-29T01:28:52.649Z,2.53
2022-07-29T01:31:24.992Z,2.40
2022-07-29T01:33:58.822Z,2.33
2022-07-29T01:36:32.389Z,2.40
2022-07-29T01:39:04.190Z,2.23
2022-07-29T01:41:33.048Z,2.17
2022-07-29T01:44:04.515Z,1.97
2022-07-29T01:46:39.727Z,2.20
2022-07-29T01:49:15.513Z,2.07
2022-07-29T01:51:55.824Z,1.80
2022-07-29T01:54:22.809Z,2.23
2022-07-29T01:56:51.082Z,1.90
2022-07-29T01:59:19.045Z,1.83
2022-07-29T02:01:46.964Z,2.00
2022-07-29T02:04:29.549Z,2.00
2022-07-29T02:07:00.078Z,1.90
2022-07-29T02:09:27.936Z,1.90
2022-07-29T02:11:56.465Z,2.07
2022-07-29T02:14:24.287Z,1.97
2022-07-29T02:16:53.336Z,2.00
2022-07-29T02:19:22.387Z,1.87
2022-07-29T02:21:49.533Z,2.33
2022-07-29T02:24:17.426Z,2.23
2022-07-29T02:26:45.436Z,3.10
2022-07-29T02:29:13.756Z,2.23
2022-07-29T02:31:41.137Z,2.10
2022-07-29T02:34:09.578Z,2.00
2022-07-29T02:36:37.068Z,2.10
2022-07-29T02:39:04.594Z,2.10
2022-07-29T02:41:31.545Z,1.80
2022-07-29T02:44:01.590Z,1.90
2022-07-29T02:46:36.081Z,1.93
2022-07-29T02:49:26.271Z,1.53
2022-07-29T02:51:59.262Z,1.83
2022-07-29T02:54:41.192Z,2.03
2022-07-29T02:57:12.228Z,2.10
2022-07-29T02:59:43.374Z,2.27
2022-07-29T03:02:11.091Z,1.93
2022-07-29T03:04:40.121Z,2.60
2022-07-29T03:07:07.693Z,2.37
2022-07-29T03:09:34.920Z,2.23
2022-07-29T03:12:02.630Z,2.57
2022-07-29T03:14:29.734Z,2.20
2022-07-29T03:16:56.826Z,2.17
2022-07-29T03:19:23.816Z,2.37
2022-07-29T03:21:50.988Z,1.80
2022-07-29T03:24:29.900Z,2.07
2022-07-29T03:26:58.025Z,2.60
2022-07-29T03:29:25.374Z,2.17
2022-07-29T03:32:00.571Z,2.00
2022-07-29T03:34:29.743Z,2.03
2022-07-29T03:36:56.648Z,2.40
2022-07-29T03:39:26.138Z,2.73
2022-07-29T03:41:54.521Z,2.20
2022-07-29T03:44:22.109Z,2.00
2022-07-29T03:46:50.012Z,1.83
2022-07-29T03:49:18.145Z,1.93
2022-07-29T03:51:45.130Z,1.90
2022-07-29T03:54:12.400Z,1.77
2022-07-29T03:56:41.118Z,2.07
2022-07-29T03:59:08.450Z,2.10
2022-07-29T04:01:36.942Z,2.00
2022-07-29T04:04:05.032Z,2.07
2022-07-29T04:06:45.314Z,2.10
2022-07-29T04:09:13.237Z,2.03
2022-07-29T04:11:59.834Z,2.40
2022-07-29T04:14:27.752Z,1.90
2022-07-29T04:16:54.708Z,2.20
2022-07-29T04:19:21.687Z,2.23
2022-07-29T04:21:48.680Z,1.63
2022-07-29T04:24:16.149Z,1.80
2022-07-29T04:26:43.333Z,2.07
2022-07-29T04:29:10.422Z,1.70
2022-07-29T04:31:37.462Z,2.03
2022-07-29T04:34:04.844Z,1.47
2022-07-29T04:36:31.809Z,1.60
2022-07-29T04:38:59.097Z,2.30
2022-07-29T04:41:33.016Z,1.57
2022-07-29T04:44:02.488Z,2.23
2022-07-29T04:46:30.264Z,1.70
2022-07-29T04:48:57.374Z,1.70
2022-07-29T04:51:24.406Z,1.70
2022-07-29T04:53:51.399Z,1.97
2022-07-29T04:56:18.323Z,2.10
2022-07-29T04:58:45.661Z,1.77
2022-07-29T05:01:12.536Z,1.93
2022-07-29T05:03:39.594Z,1.60
2022-07-29T05:06:06.903Z,1.60
2022-07-29T05:08:33.959Z,2.10
2022-07-29T05:11:11.577Z,1.80
2022-07-29T05:13:45.869Z,1.70
2022-07-29T05:16:14.851Z,1.70
2022-07-29T05:18:42.319Z,1.93
2022-07-29T05:21:09.248Z,2.17
2022-07-29T05:23:36.124Z,1.83
2022-07-29T05:26:03.223Z,2.00
2022-07-29T05:28:30.283Z,1.57
2022-07-29T05:30:57.513Z,1.80
2022-07-29T05:33:34.867Z,1.30
2022-07-29T05:36:08.470Z,1.70
2022-07-29T05:38:36.812Z,1.50
2022-07-29T05:41:04.133Z,1.30
2022-07-29T05:43:31.286Z,1.57
2022-07-29T05:45:58.482Z,2.07
2022-07-29T05:48:26.480Z,1.60
2022-07-29T05:50:53.648Z,1.33
2022-07-29T05:53:21.155Z,1.73
2022-07-29T05:55:48.919Z,1.53
2022-07-29T05:58:15.935Z,1.40
2022-07-29T06:00:43.195Z,1.93
2022-07-29T06:03:10.340Z,1.30
2022-07-29T06:05:37.319Z,1.83
2022-07-29T06:08:06.913Z,1.57
2022-07-29T06:10:34.120Z,1.30
2022-07-29T06:13:01.021Z,1.60
2022-07-29T06:15:28.741Z,1.40
2022-07-29T06:18:00.481Z,1.30
2022-07-29T06:20:32.836Z,1.40
2022-07-29T06:23:00.743Z,1.30
2022-07-29T06:25:30.435Z,1.30
2022-07-29T06:27:58.118Z,1.50
2022-07-29T06:30:25.244Z,1.40
2022-07-29T06:32:52.397Z,1.73
2022-07-29T06:35:38.827Z,1.30
2022-07-29T06:38:25.074Z,1.40
2022-07-29T06:41:07.216Z,1.40
2022-07-29T06:43:50.629Z,1.37
2022-07-29T06:46:20.763Z,1.20
2022-07-29T06:48:48.802Z,2.00
2022-07-29T06:51:16.210Z,1.20
2022-07-29T06:54:01.422Z,1.30
2022-07-29T06:56:31.768Z,1.50
2022-07-29T06:58:58.874Z,1.37
2022-07-29T07:01:26.065Z,1.50
2022-07-29T07:03:53.044Z,1.40
2022-07-29T07:06:20.145Z,1.67
2022-07-29T07:08:47.077Z,1.37
2022-07-29T07:11:14.107Z,1.60
2022-07-29T07:13:41.031Z,1.60
2022-07-29T07:16:08.003Z,1.67
2022-07-29T07:18:34.914Z,1.60
2022-07-29T07:21:02.038Z,1.80
2022-07-29T07:23:28.966Z,1.73
2022-07-29T07:25:56.081Z,1.90
2022-07-29T07:28:24.656Z,1.70
2022-07-29T07:30:52.912Z,2.33
2022-07-29T07:33:20.521Z,2.07
2022-07-29T07:35:47.804Z,2.10
2022-07-29T07:38:15.029Z,1.80
2022-07-29T07:40:42.521Z,1.60
2022-07-29T07:43:09.488Z,1.83
2022-07-29T07:45:38.552Z,1.73
2022-07-29T07:48:06.078Z,1.80
2022-07-29T07:50:33.199Z,1.40
2022-07-29T07:53:00.717Z,2.00
2022-07-29T07:55:27.851Z,2.00
2022-07-29T07:57:57.722Z,1.73
2022-07-29T08:00:24.745Z,2.20
2022-07-29T08:02:51.895Z,1.90
2022-07-29T08:05:19.263Z,1.87
2022-07-29T08:07:47.006Z,2.30
2022-07-29T08:10:37.086Z,2.00
2022-07-29T08:13:08.058Z,2.20
2022-07-29T08:15:35.516Z,2.13
2022-07-29T08:18:08.196Z,2.23
2022-07-29T08:20:36.882Z,2.33
2022-07-29T08:23:04.364Z,2.00
2022-07-29T08:25:31.511Z,2.07
2022-07-29T08:27:58.466Z,2.30
2022-07-29T08:30:25.867Z,2.00
2022-07-29T08:32:55.509Z,2.00
2022-07-29T08:35:23.338Z,1.77
2022-07-29T08:37:50.623Z,2.07
2022-07-29T08:40:17.715Z,2.33
2022-07-29T08:42:44.844Z,2.80
2022-07-29T08:45:12.422Z,2.30
2022-07-29T08:47:42.789Z,1.90
2022-07-29T08:50:10.317Z,2.33
2022-07-29T08:52:38.574Z,2.43
2022-07-29T08:55:06.750Z,2.13
2022-07-29T08:57:34.049Z,2.37
2022-07-29T09:00:07.898Z,2.47
2022-07-29T09:02:43.375Z,2.40
2022-07-29T09:05:14.003Z,3.20
2022-07-29T09:07:44.359Z,2.00
2022-07-29T09:10:11.472Z,2.60
2022-07-29T09:12:39.155Z,2.43
2022-07-29T09:15:06.620Z,2.97
2022-07-29T09:17:46.858Z,2.57
2022-07-29T09:20:15.742Z,2.40
2022-07-29T09:22:42.771Z,2.30
2022-07-29T09:25:10.383Z,2.40
2022-07-29T09:27:37.339Z,2.70
2022-07-29T09:30:06.761Z,2.30
2022-07-29T09:32:53.895Z,2.53
2022-07-29T09:35:22.192Z,2.80
2022-07-29T09:37:49.589Z,2.30
2022-07-29T09:40:18.097Z,2.33
2022-07-29T09:42:45.515Z,1.97
2022-07-29T09:45:12.929Z,2.07
2022-07-29T09:47:42.650Z,2.63
2022-07-29T09:50:09.666Z,2.77
2022-07-29T09:52:45.803Z,2.20
2022-07-29T09:55:17.890Z,2.43
2022-07-29T09:57:46.496Z,2.60
2022-07-29T10:00:19.022Z,2.50
2022-07-29T10:02:47.281Z,2.70
2022-07-29T10:05:18.611Z,2.03
2022-07-29T10:07:57.562Z,2.23
2022-07-29T10:10:28.774Z,2.00
2022-07-29T10:12:57.148Z,2.60
2022-07-29T10:15:25.187Z,2.50
2022-07-29T10:17:52.898Z,2.30
2022-07-29T10:20:20.679Z,2.27
2022-07-29T10:22:53.378Z,2.50
2022-07-29T10:25:21.545Z,2.60
2022-07-29T10:27:49.352Z,2.17
2022-07-29T10:30:16.825Z,2.27
2022-07-29T10:32:43.687Z,2.17
2022-07-29T10:35:10.737Z,2.50
2022-07-29T10:37:37.572Z,2.00
2022-07-29T10:40:37.661Z,2.30
2022-07-29T10:43:18.853Z,2.47
2022-07-29T10:45:48.549Z,2.47
2022-07-29T10:48:17.313Z,2.17
2022-07-29T10:51:00.012Z,2.30
2022-07-29T10:53:47.013Z,2.53
2022-07-29T10:56:34.910Z,2.53
2022-07-29T10:59:38.084Z,2.33
2022-07-29T11:02:41.376Z,2.30
2022-07-29T11:05:10.802Z,2.50
2022-07-29T11:07:47.804Z,3.30
2022-07-29T11:10:15.396Z,3.23
2022-07-29T11:12:43.534Z,2.47
2022-07-29T11:15:18.582Z,2.70
2022-07-29T11:18:01.804Z,3.00
2022-07-29T11:20:32.788Z,2.67
2022-07-29T11:22:59.921Z,2.80
2022-07-29T11:25:50.172Z,2.80
2022-07-29T11:28:23.144Z,3.50
2022-07-29T11:30:54.555Z,4.23
2022-07-29T11:33:37.460Z,3.93
2022-07-29T11:36:18.460Z,3.67
2022-07-29T11:38:45.379Z,3.10
2022-07-29T11:41:30.355Z,3.17
2022-07-29T11:44:02.443Z,3.10
2022-07-29T11:46:50.123Z,3.63
2022-07-29T11:49:31.507Z,3.70
2022-07-29T11:52:03.042Z,3.67
2022-07-29T11:54:38.736Z,4.07
2022-07-29T11:57:22.202Z,4.13
2022-07-29T11:59:50.810Z,4.47
2022-07-29T12:02:37.164Z,3.43
2022-07-29T12:05:11.030Z,3.43
2022-07-29T12:07:39.036Z,3.90
2022-07-29T12:10:07.444Z,3.97
2022-07-29T12:12:39.888Z,3.27
2022-07-29T12:15:22.330Z,3.70
2022-07-29T12:17:49.706Z,4.10
2022-07-29T12:20:36.913Z,3.90
2022-07-29T12:23:08.782Z,3.90
2022-07-29T12:25:39.598Z,3.97
2022-07-29T12:28:10.240Z,4.07
2022-07-29T12:30:49.745Z,3.90
2022-07-29T12:33:18.927Z,4.17
2022-07-29T12:35:58.070Z,3.33
2022-07-29T12:38:30.957Z,3.87
2022-07-29T12:40:57.901Z,3.73
2022-07-29T12:43:25.733Z,3.60
2022-07-29T12:45:54.645Z,4.20
2022-07-29T12:48:34.656Z,4.70
2022-07-29T12:51:03.439Z,4.47
2022-07-29T12:53:30.580Z,4.03
2022-07-29T12:55:58.352Z,3.57
2022-07-29T12:58:37.995Z,4.53
2022-07-29T13:01:16.873Z,3.30
2022-07-29T13:03:44.677Z,3.73
2022-07-29T13:06:30.877Z,3.80
2022-07-29T13:09:08.772Z,3.40
2022-07-29T13:11:36.949Z,3.77
2022-07-29T13:14:06.703Z,3.50
2022-07-29T13:16:34.690Z,2.80
2022-07-29T13:19:08.630Z,3.30
2022-07-29T13:21:36.495Z,3.17
2022-07-29T13:24:03.621Z,3.60
2022-07-29T13:26:30.649Z,3.57
2022-07-29T13:28:57.592Z,3.63
2022-07-29T13:31:24.636Z,3.27
2022-07-29T13:33:51.731Z,3.90
2022-07-29T13:36:20.146Z,3.70
2022-07-29T13:38:47.109Z,3.77
2022-07-29T13:41:14.112Z,4.03
2022-07-29T13:43:41.082Z,4.80
2022-07-29T13:46:08.159Z,4.70
2022-07-29T13:48:35.175Z,5.13
2022-07-29T13:51:02.183Z,4.70
2022-07-29T13:53:29.860Z,4.63
2022-07-29T13:55:56.999Z,4.23
2022-07-29T13:58:24.168Z,4.13
2022-07-29T14:00:51.497Z,4.20
2022-07-29T14:03:18.453Z,4.13
2022-07-29T14:05:45.955Z,3.93
2022-07-29T14:08:12.907Z,4.00
2022-07-29T14:10:39.891Z,4.07
2022-07-29T14:13:06.904Z,4.23
2022-07-29T14:15:51.859Z,4.70
2022-07-29T14:18:18.824Z,4.37
2022-07-29T14:20:45.898Z,4.13
2022-07-29T14:23:12.994Z,4.47
2022-07-29T14:25:43.398Z,4.30
2022-07-29T14:28:11.556Z,4.60
2022-07-29T14:30:41.107Z,4.23
2022-07-29T14:33:08.093Z,6.77
2022-07-29T14:35:35.072Z,6.60
2022-07-29T14:38:01.989Z,9.43
2022-07-29T14:40:29.060Z,13.10
2022-07-29T14:42:55.967Z,5.77
2022-07-29T14:45:23.851Z,8.73
2022-07-29T14:47:57.252Z,8.17
2022-07-29T14:50:31.443Z,6.57
2022-07-29T14:52:59.577Z,6.67
2022-07-29T14:55:26.760Z,5.40
2022-07-29T14:58:03.112Z,5.00
2022-07-29T15:00:34.637Z,4.70
2022-07-29T15:03:02.982Z,4.50
2022-07-29T15:05:31.156Z,4.23
2022-07-29T15:07:58.504Z,4.03
2022-07-29T15:10:27.329Z,4.53
2022-07-29T15:12:54.641Z,4.87
2022-07-29T15:15:21.957Z,3.97
2022-07-29T15:17:48.905Z,4.00
2022-07-29T15:20:15.938Z,4.40
2022-07-29T15:22:44.170Z,4.97
2022-07-29T15:25:11.426Z,4.80
2022-07-29T15:27:38.471Z,4.57
2022-07-29T15:30:05.779Z,5.40
2022-07-29T15:32:32.661Z,4.77
2022-07-29T15:34:59.691Z,4.60
2022-07-29T15:37:26.595Z,5.00
2022-07-29T15:39:56.011Z,5.13
2022-07-29T15:42:26.808Z,5.20
2022-07-29T15:44:53.691Z,4.40
2022-07-29T15:47:20.658Z,4.50
2022-07-29T15:49:49.466Z,4.03
2022-07-29T15:52:26.007Z,5.30
2022-07-29T15:54:58.075Z,4.87
2022-07-29T15:57:25.374Z,4.13
2022-07-29T15:59:52.717Z,3.83
2022-07-29T16:02:20.135Z,3.97
2022-07-29T16:04:47.433Z,3.87
2022-07-29T16:07:16.086Z,4.43
2022-07-29T16:09:43.392Z,3.97
2022-07-29T16:12:14.970Z,4.63
2022-07-29T16:14:43.728Z,4.57
2022-07-29T16:17:14.427Z,4.67
2022-07-29T16:19:43.258Z,4.10
2022-07-29T16:22:10.350Z,4.40
2022-07-29T16:24:37.358Z,4.80
2022-07-29T16:27:04.335Z,4.73
2022-07-29T16:29:31.399Z,4.40
2022-07-29T16:31:58.441Z,3.80
2022-07-29T16:34:25.513Z,4.60
2022-07-29T16:36:52.477Z,4.90
2022-07-29T16:39:19.456Z,5.67
2022-07-29T16:41:46.349Z,5.53
2022-07-29T16:44:13.571Z,5.00
2022-07-29T16:46:41.436Z,8.13
2022-07-29T16:49:08.687Z,11.77
2022-07-29T16:51:35.737Z,29.73
2022-07-29T16:54:02.723Z,12.23
2022-07-29T16:56:29.627Z,12.47
2022-07-29T16:58:57.935Z,9.33
2022-07-29T17:01:24.856Z,7.40
2022-07-29T17:04:07.198Z,5.90
2022-07-29T17:06:38.233Z,6.83
2022-07-29T17:09:06.040Z,6.50
2022-07-29T17:11:52.554Z,6.00
2022-07-29T17:14:24.158Z,6.57
2022-07-29T17:17:00.314Z,7.13
2022-07-29T17:19:29.552Z,6.17
2022-07-29T17:22:03.542Z,5.37
2022-07-29T17:24:36.165Z,5.23
2022-07-29T17:27:03.219Z,4.90
2022-07-29T17:29:30.199Z,5.63
2022-07-29T17:31:59.617Z,6.23
2022-07-29T17:34:26.771Z,6.17
2022-07-29T17:36:53.716Z,5.23
2022-07-29T17:39:20.694Z,6.80
2022-07-29T17:41:47.678Z,8.17
2022-07-29T17:44:14.778Z,8.03
2022-07-29T17:46:41.902Z,8.00
2022-07-29T17:49:09.186Z,8.27
2022-07-29T17:51:36.245Z,8.97
2022-07-29T17:54:03.421Z,10.23
2022-07-29T17:56:30.550Z,6.37
2022-07-29T17:59:01.295Z,6.17
2022-07-29T18:01:28.963Z,6.07
2022-07-29T18:03:59.814Z,5.43
2022-07-29T18:06:27.255Z,5.60
2022-07-29T18:08:54.417Z,4.67
2022-07-29T18:11:21.769Z,5.10
2022-07-29T18:13:48.801Z,5.67
2022-07-29T18:16:15.824Z,5.60
2022-07-29T18:18:44.293Z,5.73
2022-07-29T18:21:11.655Z,5.53
2022-07-29T18:23:38.754Z,5.87
2022-07-29T18:26:05.859Z,5.50
2022-07-29T18:28:33.034Z,6.20
2022-07-29T18:31:00.945Z,5.53
2022-07-29T18:33:28.131Z,5.57
2022-07-29T18:36:10.090Z,6.17
2022-07-29T18:38:39.628Z,6.33
2022-07-29T18:41:06.540Z,6.17
2022-07-29T18:43:33.614Z,6.63
2022-07-29T18:46:00.584Z,7.07
2022-07-29T18:48:28.645Z,7.07
2022-07-29T18:50:55.845Z,8.23
2022-07-29T18:53:22.986Z,7.43
2022-07-29T18:55:49.883Z,7.50
2022-07-29T18:58:16.905Z,7.90
2022-07-29T19:00:44.157Z,7.10
2022-07-29T19:03:11.423Z,9.00
2022-07-29T19:05:38.398Z,8.43
2022-07-29T19:08:05.785Z,8.93
2022-07-29T19:10:32.742Z,9.37
2022-07-29T19:12:59.850Z,8.93
2022-07-29T19:15:26.921Z,8.03
2022-07-29T19:17:57.685Z,7.50
2022-07-29T19:20:27.840Z,6.67
2022-07-29T19:22:54.816Z,7.47
2022-07-29T19:25:23.248Z,7.47
2022-07-29T19:27:50.243Z,8.00
2022-07-29T19:30:17.320Z,8.33
2022-07-29T19:32:44.236Z,8.47
2022-07-29T19:35:31.542Z,9.53
2022-07-29T19:37:59.785Z,9.37
2022-07-29T19:40:26.946Z,9.00
2022-07-29T19:42:54.270Z,8.30
2022-07-29T19:45:22.187Z,8.43
2022-07-29T19:47:49.947Z,7.60
2022-07-29T19:50:17.253Z,7.90
2022-07-29T19:52:45.400Z,7.80
2022-07-29T19:55:12.334Z,9.33
2022-07-29T19:57:40.808Z,7.03
2022-07-29T20:00:08.080Z,7.23
2022-07-29T20:02:38.613Z,7.60
2022-07-29T20:05:05.816Z,6.47
2022-07-29T20:07:32.801Z,7.30
2022-07-29T20:09:59.765Z,6.50
2022-07-29T20:12:26.800Z,6.77
2022-07-29T20:14:53.862Z,7.40
2022-07-29T20:17:22.567Z,6.63
2022-07-29T20:19:50.043Z,6.13
2022-07-29T20:22:21.125Z,5.93
2022-07-29T20:24:49.441Z,6.30
2022-07-29T20:27:16.332Z,5.83
2022-07-29T20:29:43.665Z,6.47
2022-07-29T20:32:12.375Z,6.87
2022-07-29T20:34:41.474Z,6.47
2022-07-29T20:37:13.569Z,6.77
2022-07-29T20:39:40.867Z,7.30
2022-07-29T20:42:08.060Z,7.90
2022-07-29T20:44:35.210Z,7.70
2022-07-29T20:47:03.369Z,7.80
2022-07-29T20:49:30.615Z,6.73
2022-07-29T20:51:57.952Z,6.13
2022-07-29T20:54:24.963Z,6.40
2022-07-29T20:56:51.857Z,6.43
2022-07-29T20:59:19.066Z,6.30
2022-07-29T21:01:46.465Z,7.07
2022-07-29T21:04:13.627Z,5.97
2022-07-29T21:06:40.587Z,5.77
2022-07-29T21:09:07.683Z,5.70
2022-07-29T21:11:44.120Z,5.60
2022-07-29T21:14:32.259Z,5.93
2022-07-29T21:16:59.544Z,5.60
2022-07-29T21:19:26.586Z,5.33
2022-07-29T21:21:53.716Z,4.93
2022-07-29T21:24:20.602Z,5.10
2022-07-29T21:27:04.939Z,4.47
2022-07-29T21:29:35.023Z,4.73
2022-07-29T21:32:01.917Z,5.17
2022-07-29T21:34:28.975Z,5.00
2022-07-29T21:36:55.943Z,4.23
2022-07-29T21:39:22.960Z,4.93
2022-07-29T21:41:49.921Z,4.77
2022-07-29T21:44:17.178Z,4.70
2022-07-29T21:46:44.092Z,4.50
2022-07-29T21:49:11.233Z,4.90
2022-07-29T21:51:38.240Z,4.83
2022-07-29T21:54:05.195Z,4.87
2022-07-29T21:56:33.411Z,5.13
2022-07-29T21:59:00.883Z,4.67
2022-07-29T22:01:27.867Z,5.07
2022-07-29T22:03:55.091Z,4.77
2022-07-29T22:06:22.480Z,5.20
2022-07-29T22:08:49.547Z,5.57
2022-07-29T22:11:16.727Z,5.03
2022-07-29T22:13:43.891Z,5.20
2022-07-29T22:16:15.071Z,5.23
2022-07-29T22:18:45.519Z,5.63
2022-07-29T22:21:13.094Z,5.30
2022-07-29T22:23:40.038Z,5.37
2022-07-29T22:26:07.066Z,5.30
2022-07-29T22:28:33.989Z,5.27
2022-07-29T22:31:01.029Z,5.57
2022-07-29T22:33:29.192Z,5.30
2022-07-29T22:35:56.203Z,5.20
2022-07-29T22:38:23.105Z,5.30
2022-07-29T22:40:51.482Z,4.87
2022-07-29T22:43:18.895Z,5.97
2022-07-29T22:45:45.953Z,5.50
2022-07-29T22:48:12.878Z,5.93
2022-07-29T22:50:42.014Z,5.60
2022-07-29T22:53:08.969Z,5.93
2022-07-29T22:55:35.971Z,5.53
2022-07-29T22:58:02.978Z,5.93
2022-07-29T23:00:30.129Z,5.80
2022-07-29T23:02:57.035Z,5.50
2022-07-29T23:05:24.122Z,5.27
2022-07-29T23:07:51.095Z,6.20
2022-07-29T23:10:18.125Z,5.50
2022-07-29T23:12:45.119Z,5.20
2022-07-29T23:15:12.588Z,5.93
2022-07-29T23:17:39.538Z,5.77
2022-07-29T23:20:08.038Z,6.00
2022-07-29T23:22:36.008Z,5.67
2022-07-29T23:25:03.775Z,5.60
2022-07-29T23:27:30.764Z,6.00
2022-07-29T23:29:57.864Z,5.57
2022-07-29T23:32:24.766Z,6.73
2022-07-29T23:34:52.071Z,6.30
2022-07-29T23:37:18.997Z,6.73
2022-07-29T23:39:46.078Z,6.70
2022-07-29T23:42:13.100Z,6.03
2022-07-29T23:44:40.151Z,6.17
2022-07-29T23:47:07.049Z,6.17
2022-07-29T23:49:34.170Z,6.20
2022-07-29T23:52:01.064Z,6.60
2022-07-29T23:54:28.115Z,5.90
2022-07-29T23:56:58.154Z,6.40
2022-07-29T23:59:25.422Z,5.60
